Fairplay, Colorado
Current Conditions -  °F | °C
As of 9:53 PM on Sunday 19 Oct 2014 (Local Time) from KLXV Reporting Station
Broken Clouds Broken Clouds  
Wind Chill: 40°   Ceiling: 6000
Heat Index: 40°   Visibility: 10mi
Dew Point: 31°   Wind: 3mph
Humidity: 70%   Direction: 150°SSE
Pressure: 30.38"   Gusts: NA
Location:  39.22°N, 106°W
Report Text: KLXV 200353Z AUTO 15003KT 10SM BKN060 04/M01 A3038 RMK AO2 SLP173 T00441006
Loading
Personal Weather Stations






























Interactive Weather Map
Tropical Storm Tracking
New forecast layout! Learn more

10-Day Weather Forecast

Advertisements
Track Severe Weather on mobile